sensor_id;sensor_type;location;lat;lon;timestamp;pressure;altitude;pressure_sealevel;temperature;humidity
64683;BME280;51107;47.652;19.016;2024-02-15T00:00:26;100588.94;;;5.88;85.78
64683;BME280;51107;47.652;19.016;2024-02-15T00:02:55;100591.94;;;5.82;85.44
64683;BME280;51107;47.652;19.016;2024-02-15T00:05:26;100597.00;;;5.83;84.96
64683;BME280;51107;47.652;19.016;2024-02-15T00:07:54;100606.09;;;5.76;84.95
64683;BME280;51107;47.652;19.016;2024-02-15T00:10:22;100599.97;;;5.77;84.87
64683;BME280;51107;47.652;19.016;2024-02-15T00:12:53;100589.59;;;5.64;86.24
64683;BME280;51107;47.652;19.016;2024-02-15T00:15:22;100599.25;;;5.75;85.49
64683;BME280;51107;47.652;19.016;2024-02-15T00:17:49;100609.69;;;5.73;86.09
64683;BME280;51107;47.652;19.016;2024-02-15T00:20:18;100595.94;;;5.73;86.39
64683;BME280;51107;47.652;19.016;2024-02-15T00:22:47;100594.91;;;5.75;85.87
64683;BME280;51107;47.652;19.016;2024-02-15T00:25:15;100592.53;;;5.72;85.54
64683;BME280;51107;47.652;19.016;2024-02-15T00:27:44;100600.72;;;5.79;84.07
64683;BME280;51107;47.652;19.016;2024-02-15T00:30:13;100595.09;;;5.72;83.99
64683;BME280;51107;47.652;19.016;2024-02-15T00:32:41;100598.62;;;5.71;84.28
64683;BME280;51107;47.652;19.016;2024-02-15T00:35:10;100607.66;;;5.78;84.45
64683;BME280;51107;47.652;19.016;2024-02-15T00:37:40;100595.75;;;5.76;84.84
64683;BME280;51107;47.652;19.016;2024-02-15T00:40:08;100595.97;;;5.86;83.93
64683;BME280;51107;47.652;19.016;2024-02-15T00:42:37;100586.19;;;5.91;83.59
64683;BME280;51107;47.652;19.016;2024-02-15T00:45:05;100587.81;;;5.92;85.16
64683;BME280;51107;47.652;19.016;2024-02-15T00:47:36;100595.56;;;5.92;85.47
64683;BME280;51107;47.652;19.016;2024-02-15T00:50:07;100591.84;;;5.96;85.01
64683;BME280;51107;47.652;19.016;2024-02-15T00:52:35;100595.00;;;6.01;83.84
64683;BME280;51107;47.652;19.016;2024-02-15T00:55:04;100595.22;;;6.11;83.02
64683;BME280;51107;47.652;19.016;2024-02-15T00:57:32;100593.16;;;6.16;83.93
64683;BME280;51107;47.652;19.016;2024-02-15T01:00:00;100604.34;;;6.17;83.97
64683;BME280;51107;47.652;19.016;2024-02-15T01:02:30;100599.47;;;6.12;84.79
64683;BME280;51107;47.652;19.016;2024-02-15T01:04:59;100599.25;;;6.02;84.85
64683;BME280;51107;47.652;19.016;2024-02-15T01:07:27;100594.25;;;5.99;84.54
64683;BME280;51107;47.652;19.016;2024-02-15T01:09:55;100595.97;;;6.13;84.23
64683;BME280;51107;47.652;19.016;2024-02-15T01:12:24;100595.88;;;6.15;84.87
64683;BME280;51107;47.652;19.016;2024-02-15T01:14:52;100596.69;;;6.15;84.54
64683;BME280;51107;47.652;19.016;2024-02-15T01:17:20;100588.91;;;6.15;85.19
64683;BME280;51107;47.652;19.016;2024-02-15T01:19:48;100588.28;;;6.11;86.17
64683;BME280;51107;47.652;19.016;2024-02-15T01:22:17;100590.59;;;6.16;84.56
64683;BME280;51107;47.652;19.016;2024-02-15T01:24:46;100583.03;;;6.13;84.85
64683;BME280;51107;47.652;19.016;2024-02-15T01:27:14;100576.09;;;6.14;84.51
64683;BME280;51107;47.652;19.016;2024-02-15T01:29:42;100584.56;;;6.16;84.54
64683;BME280;51107;47.652;19.016;2024-02-15T01:32:10;100569.88;;;6.16;83.14
64683;BME280;51107;47.652;19.016;2024-02-15T01:34:40;100585.09;;;6.21;83.34
64683;BME280;51107;47.652;19.016;2024-02-15T01:37:08;100582.22;;;6.25;82.24
64683;BME280;51107;47.652;19.016;2024-02-15T01:39:37;100588.84;;;6.29;82.71
64683;BME280;51107;47.652;19.016;2024-02-15T01:42:05;100584.59;;;6.28;84.00
64683;BME280;51107;47.652;19.016;2024-02-15T01:44:33;100585.31;;;6.18;84.85
64683;BME280;51107;47.652;19.016;2024-02-15T01:47:01;100585.41;;;6.16;84.34
64683;BME280;51107;47.652;19.016;2024-02-15T01:49:29;100584.38;;;6.19;83.43
64683;BME280;51107;47.652;19.016;2024-02-15T01:51:58;100594.69;;;6.06;84.79
64683;BME280;51107;47.652;19.016;2024-02-15T01:54:28;100587.59;;;5.95;85.30
64683;BME280;51107;47.652;19.016;2024-02-15T01:56:57;100592.75;;;5.82;85.15
64683;BME280;51107;47.652;19.016;2024-02-15T01:59:26;100592.28;;;5.90;84.21
64683;BME280;51107;47.652;19.016;2024-02-15T02:01:54;100585.50;;;5.74;86.29
64683;BME280;51107;47.652;19.016;2024-02-15T02:04:22;100596.34;;;5.67;86.90
64683;BME280;51107;47.652;19.016;2024-02-15T02:06:51;100591.28;;;5.65;87.22
64683;BME280;51107;47.652;19.016;2024-02-15T02:09:27;100589.72;;;5.62;88.30
64683;BME280;51107;47.652;19.016;2024-02-15T02:11:55;100594.44;;;5.56;88.79
64683;BME280;51107;47.652;19.016;2024-02-15T02:14:23;100579.94;;;5.53;89.17
64683;BME280;51107;47.652;19.016;2024-02-15T02:16:52;100581.91;;;5.50;88.62
64683;BME280;51107;47.652;19.016;2024-02-15T02:19:21;100588.91;;;5.48;88.94
64683;BME280;51107;47.652;19.016;2024-02-15T02:21:50;100588.22;;;5.46;89.01
64683;BME280;51107;47.652;19.016;2024-02-15T02:24:22;100582.94;;;5.47;88.90
64683;BME280;51107;47.652;19.016;2024-02-15T02:26:50;100585.75;;;5.57;87.69
64683;BME280;51107;47.652;19.016;2024-02-15T02:29:19;100580.72;;;5.68;87.28
64683;BME280;51107;47.652;19.016;2024-02-15T02:31:48;100578.00;;;5.57;87.79
64683;BME280;51107;47.652;19.016;2024-02-15T02:34:16;100573.53;;;5.46;88.40
64683;BME280;51107;47.652;19.016;2024-02-15T02:36:45;100583.22;;;5.42;88.47
64683;BME280;51107;47.652;19.016;2024-02-15T02:39:14;100592.81;;;5.40;88.77
64683;BME280;51107;47.652;19.016;2024-02-15T02:41:42;100580.94;;;5.38;89.09
64683;BME280;51107;47.652;19.016;2024-02-15T02:44:11;100586.41;;;5.33;89.60
64683;BME280;51107;47.652;19.016;2024-02-15T02:46:38;100580.38;;;5.33;90.48
64683;BME280;51107;47.652;19.016;2024-02-15T02:49:09;100572.53;;;5.34;90.01
64683;BME280;51107;47.652;19.016;2024-02-15T02:51:37;100580.16;;;5.50;88.58
64683;BME280;51107;47.652;19.016;2024-02-15T02:54:05;100585.56;;;5.60;88.01
64683;BME280;51107;47.652;19.016;2024-02-15T02:56:34;100572.59;;;5.74;85.98
64683;BME280;51107;47.652;19.016;2024-02-15T02:59:02;100584.84;;;5.58;86.17
64683;BME280;51107;47.652;19.016;2024-02-15T03:01:31;100575.47;;;5.42;88.33
64683;BME280;51107;47.652;19.016;2024-02-15T03:04:00;100577.69;;;5.34;89.84
64683;BME280;51107;47.652;19.016;2024-02-15T03:06:29;100573.47;;;5.33;91.36
64683;BME280;51107;47.652;19.016;2024-02-15T03:08:57;100578.66;;;5.33;92.01
64683;BME280;51107;47.652;19.016;2024-02-15T03:11:25;100583.81;;;5.33;91.51
64683;BME280;51107;47.652;19.016;2024-02-15T03:13:53;100582.16;;;5.32;91.58
64683;BME280;51107;47.652;19.016;2024-02-15T03:16:22;100579.94;;;5.26;92.22
64683;BME280;51107;47.652;19.016;2024-02-15T03:18:53;100574.88;;;5.24;93.07
64683;BME280;51107;47.652;19.016;2024-02-15T03:21:21;100584.84;;;5.31;91.51
64683;BME280;51107;47.652;19.016;2024-02-15T03:23:50;100583.81;;;5.33;90.66
64683;BME280;51107;47.652;19.016;2024-02-15T03:26:29;100579.22;;;5.24;92.35
64683;BME280;51107;47.652;19.016;2024-02-15T03:28:58;100571.56;;;5.22;93.39
64683;BME280;51107;47.652;19.016;2024-02-15T03:31:26;100573.41;;;5.20;92.98
64683;BME280;51107;47.652;19.016;2024-02-15T03:33:54;100577.50;;;5.10;95.20
64683;BME280;51107;47.652;19.016;2024-02-15T03:36:22;100578.81;;;5.03;94.76
64683;BME280;51107;47.652;19.016;2024-02-15T03:38:50;100575.84;;;5.09;94.43
64683;BME280;51107;47.652;19.016;2024-02-15T03:41:22;100574.06;;;5.09;94.41
64683;BME280;51107;47.652;19.016;2024-02-15T03:43:50;100574.16;;;5.08;95.28
64683;BME280;51107;47.652;19.016;2024-02-15T03:46:18;100579.69;;;5.16;94.79
64683;BME280;51107;47.652;19.016;2024-02-15T03:48:46;100588.03;;;5.07;95.94
64683;BME280;51107;47.652;19.016;2024-02-15T03:51:18;100579.34;;;5.08;97.00
64683;BME280;51107;47.652;19.016;2024-02-15T03:53:51;100594.25;;;5.17;96.29
64683;BME280;51107;47.652;19.016;2024-02-15T03:56:20;100583.94;;;5.17;96.67
64683;BME280;51107;47.652;19.016;2024-02-15T03:58:51;100581.06;;;5.22;95.96
64683;BME280;51107;47.652;19.016;2024-02-15T04:01:19;100584.19;;;5.27;95.98
64683;BME280;51107;47.652;19.016;2024-02-15T04:03:47;100581.50;;;5.28;96.14
64683;BME280;51107;47.652;19.016;2024-02-15T04:06:15;100588.44;;;5.28;96.13
64683;BME280;51107;47.652;19.016;2024-02-15T04:08:43;100584.94;;;5.29;95.79
64683;BME280;51107;47.652;19.016;2024-02-15T04:11:12;100589.91;;;5.32;95.19
64683;BME280;51107;47.652;19.016;2024-02-15T04:13:39;100578.78;;;5.44;93.58
64683;BME280;51107;47.652;19.016;2024-02-15T04:16:07;100583.41;;;5.39;95.35
64683;BME280;51107;47.652;19.016;2024-02-15T04:18:36;100584.53;;;5.35;95.60
64683;BME280;51107;47.652;19.016;2024-02-15T04:21:06;100592.59;;;5.58;92.19
64683;BME280;51107;47.652;19.016;2024-02-15T04:23:35;100587.81;;;5.52;91.93
64683;BME280;51107;47.652;19.016;2024-02-15T04:26:03;100589.31;;;5.41;92.92
64683;BME280;51107;47.652;19.016;2024-02-15T04:28:31;100583.81;;;5.33;93.48
64683;BME280;51107;47.652;19.016;2024-02-15T04:31:01;100591.50;;;5.48;91.66
64683;BME280;51107;47.652;19.016;2024-02-15T04:33:29;100585.28;;;5.37;93.62
64683;BME280;51107;47.652;19.016;2024-02-15T04:35:57;100595.31;;;5.42;93.28
64683;BME280;51107;47.652;19.016;2024-02-15T04:38:28;100593.53;;;5.42;92.68
64683;BME280;51107;47.652;19.016;2024-02-15T04:40:56;100579.91;;;5.40;92.72
64683;BME280;51107;47.652;19.016;2024-02-15T04:43:25;100586.34;;;5.48;92.37
64683;BME280;51107;47.652;19.016;2024-02-15T04:45:53;100583.50;;;5.38;93.85
64683;BME280;51107;47.652;19.016;2024-02-15T04:48:21;100585.66;;;5.58;91.17
64683;BME280;51107;47.652;19.016;2024-02-15T04:50:52;100583.03;;;5.46;92.34
64683;BME280;51107;47.652;19.016;2024-02-15T04:53:23;100586.75;;;5.41;92.81
64683;BME280;51107;47.652;19.016;2024-02-15T04:55:51;100584.88;;;5.43;92.35
64683;BME280;51107;47.652;19.016;2024-02-15T04:58:18;100585.53;;;5.47;91.57
64683;BME280;51107;47.652;19.016;2024-02-15T05:00:47;100578.78;;;5.44;92.19
64683;BME280;51107;47.652;19.016;2024-02-15T05:03:20;100584.69;;;5.47;91.84
64683;BME280;51107;47.652;19.016;2024-02-15T05:05:48;100579.47;;;5.34;92.96
64683;BME280;51107;47.652;19.016;2024-02-15T05:08:16;100578.09;;;5.28;93.61
64683;BME280;51107;47.652;19.016;2024-02-15T05:10:44;100588.34;;;5.30;94.24
64683;BME280;51107;47.652;19.016;2024-02-15T05:13:13;100595.00;;;5.19;95.34
64683;BME280;51107;47.652;19.016;2024-02-15T05:15:44;100588.97;;;5.33;94.99
64683;BME280;51107;47.652;19.016;2024-02-15T05:18:13;100592.63;;;5.43;93.81
64683;BME280;51107;47.652;19.016;2024-02-15T05:20:42;100600.38;;;5.43;93.96
64683;BME280;51107;47.652;19.016;2024-02-15T05:23:10;100594.50;;;5.41;93.70
64683;BME280;51107;47.652;19.016;2024-02-15T05:25:39;100597.34;;;5.37;94.38
64683;BME280;51107;47.652;19.016;2024-02-15T05:28:09;100599.00;;;5.38;94.85
64683;BME280;51107;47.652;19.016;2024-02-15T05:30:37;100596.72;;;5.33;93.95
64683;BME280;51107;47.652;19.016;2024-02-15T05:33:07;100603.53;;;5.34;94.82
64683;BME280;51107;47.652;19.016;2024-02-15T05:35:38;100598.53;;;5.46;94.81
64683;BME280;51107;47.652;19.016;2024-02-15T05:38:07;100601.66;;;5.51;94.25
64683;BME280;51107;47.652;19.016;2024-02-15T05:40:35;100602.59;;;5.50;94.25
64683;BME280;51107;47.652;19.016;2024-02-15T05:43:04;100602.50;;;5.51;94.58
64683;BME280;51107;47.652;19.016;2024-02-15T05:45:34;100614.56;;;5.51;94.22
64683;BME280;51107;47.652;19.016;2024-02-15T05:48:07;100606.63;;;5.54;93.84
64683;BME280;51107;47.652;19.016;2024-02-15T05:50:35;100607.56;;;5.53;94.89
64683;BME280;51107;47.652;19.016;2024-02-15T05:53:04;100608.00;;;5.59;94.11
64683;BME280;51107;47.652;19.016;2024-02-15T05:55:32;100611.59;;;5.57;94.83
64683;BME280;51107;47.652;19.016;2024-02-15T05:58:02;100628.94;;;5.55;95.54
64683;BME280;51107;47.652;19.016;2024-02-15T06:00:31;100627.00;;;5.58;95.05
64683;BME280;51107;47.652;19.016;2024-02-15T06:02:59;100621.44;;;5.37;96.19
64683;BME280;51107;47.652;19.016;2024-02-15T06:05:31;100627.78;;;5.46;96.48
64683;BME280;51107;47.652;19.016;2024-02-15T06:08:01;100619.63;;;5.52;96.70
64683;BME280;51107;47.652;19.016;2024-02-15T06:10:29;100635.12;;;5.52;96.28
64683;BME280;51107;47.652;19.016;2024-02-15T06:12:57;100630.81;;;5.53;96.23
64683;BME280;51107;47.652;19.016;2024-02-15T06:15:29;100634.31;;;5.52;96.90
64683;BME280;51107;47.652;19.016;2024-02-15T06:17:57;100633.41;;;5.53;96.09
64683;BME280;51107;47.652;19.016;2024-02-15T06:20:25;100646.94;;;5.56;96.32
64683;BME280;51107;47.652;19.016;2024-02-15T06:22:56;100631.88;;;5.63;95.91
64683;BME280;51107;47.652;19.016;2024-02-15T06:25:25;100650.94;;;5.62;96.64
64683;BME280;51107;47.652;19.016;2024-02-15T06:27:53;100651.84;;;5.61;97.34
64683;BME280;51107;47.652;19.016;2024-02-15T06:30:28;100650.06;;;5.61;96.46
64683;BME280;51107;47.652;19.016;2024-02-15T06:33:15;100656.38;;;5.57;96.86
64683;BME280;51107;47.652;19.016;2024-02-15T06:36:10;100649.81;;;5.66;95.05
64683;BME280;51107;47.652;19.016;2024-02-15T06:38:57;100655.44;;;5.58;96.56
64683;BME280;51107;47.652;19.016;2024-02-15T06:41:44;100663.31;;;5.57;96.13
64683;BME280;51107;47.652;19.016;2024-02-15T06:44:12;100666.69;;;5.57;96.08
64683;BME280;51107;47.652;19.016;2024-02-15T06:46:40;100662.28;;;5.59;96.14
64683;BME280;51107;47.652;19.016;2024-02-15T06:49:09;100669.09;;;5.60;96.35
64683;BME280;51107;47.652;19.016;2024-02-15T06:51:38;100668.28;;;5.60;97.58
64683;BME280;51107;47.652;19.016;2024-02-15T06:54:06;100677.78;;;5.59;96.88
64683;BME280;51107;47.652;19.016;2024-02-15T06:56:37;100673.34;;;5.61;96.99
64683;BME280;51107;47.652;19.016;2024-02-15T06:59:08;100676.56;;;5.65;96.67
64683;BME280;51107;47.652;19.016;2024-02-15T07:01:38;100675.94;;;5.61;97.54
64683;BME280;51107;47.652;19.016;2024-02-15T07:04:06;100678.25;;;5.66;96.91
64683;BME280;51107;47.652;19.016;2024-02-15T07:06:36;100680.81;;;5.66;97.57
64683;BME280;51107;47.652;19.016;2024-02-15T07:09:05;100677.37;;;5.66;96.37
64683;BME280;51107;47.652;19.016;2024-02-15T07:11:34;100686.72;;;5.68;95.46
64683;BME280;51107;47.652;19.016;2024-02-15T07:14:02;100688.59;;;5.66;95.98
64683;BME280;51107;47.652;19.016;2024-02-15T07:16:33;100678.25;;;5.66;96.30
64683;BME280;51107;47.652;19.016;2024-02-15T07:19:01;100690.06;;;5.70;96.04
64683;BME280;51107;47.652;19.016;2024-02-15T07:21:31;100690.97;;;5.69;96.00
64683;BME280;51107;47.652;19.016;2024-02-15T07:24:00;100686.34;;;5.74;96.36
64683;BME280;51107;47.652;19.016;2024-02-15T07:26:28;100687.06;;;5.76;95.89
64683;BME280;51107;47.652;19.016;2024-02-15T07:28:57;100689.00;;;5.73;94.72
64683;BME280;51107;47.652;19.016;2024-02-15T07:31:28;100692.97;;;5.78;95.55
64683;BME280;51107;47.652;19.016;2024-02-15T07:33:57;100697.09;;;5.81;95.80
64683;BME280;51107;47.652;19.016;2024-02-15T07:36:26;100692.03;;;5.79;95.03
64683;BME280;51107;47.652;19.016;2024-02-15T07:38:55;100698.66;;;5.84;94.87
64683;BME280;51107;47.652;19.016;2024-02-15T07:41:29;100700.22;;;5.86;95.72
64683;BME280;51107;47.652;19.016;2024-02-15T07:43:57;100693.31;;;5.87;95.13
64683;BME280;51107;47.652;19.016;2024-02-15T07:46:26;100703.47;;;5.90;94.98
64683;BME280;51107;47.652;19.016;2024-02-15T07:48:54;100693.50;;;5.84;95.28
64683;BME280;51107;47.652;19.016;2024-02-15T07:51:22;100701.09;;;5.87;94.89
64683;BME280;51107;47.652;19.016;2024-02-15T07:53:51;100699.97;;;5.91;94.49
64683;BME280;51107;47.652;19.016;2024-02-15T07:56:19;100689.06;;;5.86;93.92
64683;BME280;51107;47.652;19.016;2024-02-15T07:58:48;100699.50;;;5.84;93.28
64683;BME280;51107;47.652;19.016;2024-02-15T08:01:21;100692.38;;;5.88;92.84
64683;BME280;51107;47.652;19.016;2024-02-15T08:03:52;100693.41;;;5.85;93.53
64683;BME280;51107;47.652;19.016;2024-02-15T08:06:23;100691.06;;;5.95;93.19
64683;BME280;51107;47.652;19.016;2024-02-15T08:08:57;100695.56;;;6.06;93.24
64683;BME280;51107;47.652;19.016;2024-02-15T08:11:25;100685.13;;;6.07;92.53
64683;BME280;51107;47.652;19.016;2024-02-15T08:13:54;100688.34;;;6.11;92.00
64683;BME280;51107;47.652;19.016;2024-02-15T08:16:23;100684.44;;;6.18;91.79
64683;BME280;51107;47.652;19.016;2024-02-15T08:18:51;100684.31;;;6.20;91.18
64683;BME280;51107;47.652;19.016;2024-02-15T08:21:30;100682.81;;;6.30;91.09
64683;BME280;51107;47.652;19.016;2024-02-15T08:24:00;100679.47;;;6.28;90.33
64683;BME280;51107;47.652;19.016;2024-02-15T08:26:39;100686.75;;;6.23;89.08
64683;BME280;51107;47.652;19.016;2024-02-15T08:29:10;100692.97;;;6.33;89.16
64683;BME280;51107;47.652;19.016;2024-02-15T08:31:44;100684.28;;;6.34;89.00
64683;BME280;51107;47.652;19.016;2024-02-15T08:34:13;100689.25;;;6.37;89.66
64683;BME280;51107;47.652;19.016;2024-02-15T08:36:51;100684.91;;;6.38;89.10
64683;BME280;51107;47.652;19.016;2024-02-15T08:39:26;100684.06;;;6.37;88.70
64683;BME280;51107;47.652;19.016;2024-02-15T08:41:54;100676.84;;;6.42;90.41
64683;BME280;51107;47.652;19.016;2024-02-15T08:44:31;100694.09;;;6.29;89.53
64683;BME280;51107;47.652;19.016;2024-02-15T08:47:01;100688.00;;;6.30;89.69
64683;BME280;51107;47.652;19.016;2024-02-15T08:49:42;100697.34;;;6.45;90.73
64683;BME280;51107;47.652;19.016;2024-02-15T08:52:16;100705.03;;;6.60;88.63
64683;BME280;51107;47.652;19.016;2024-02-15T08:54:48;100702.94;;;6.52;88.63
64683;BME280;51107;47.652;19.016;2024-02-15T08:57:16;100714.25;;;6.64;88.86
64683;BME280;51107;47.652;19.016;2024-02-15T08:59:45;100720.56;;;6.60;87.07
64683;BME280;51107;47.652;19.016;2024-02-15T09:02:16;100711.34;;;6.56;87.19
64683;BME280;51107;47.652;19.016;2024-02-15T09:05:06;100701.25;;;6.38;87.67
64683;BME280;51107;47.652;19.016;2024-02-15T09:07:35;100701.91;;;6.68;88.37
64683;BME280;51107;47.652;19.016;2024-02-15T09:10:06;100708.84;;;6.54;87.11
64683;BME280;51107;47.652;19.016;2024-02-15T09:12:43;100708.16;;;6.78;89.56
64683;BME280;51107;47.652;19.016;2024-02-15T09:15:15;100706.91;;;6.84;88.20
64683;BME280;51107;47.652;19.016;2024-02-15T09:17:44;100705.66;;;7.02;86.70
64683;BME280;51107;47.652;19.016;2024-02-15T09:20:17;100699.88;;;6.99;85.58
64683;BME280;51107;47.652;19.016;2024-02-15T09:22:50;100696.75;;;6.93;86.77
64683;BME280;51107;47.652;19.016;2024-02-15T09:25:19;100707.84;;;7.08;85.54
64683;BME280;51107;47.652;19.016;2024-02-15T09:27:47;100711.44;;;7.19;87.31
64683;BME280;51107;47.652;19.016;2024-02-15T09:30:16;100711.31;;;7.20;85.29
64683;BME280;51107;47.652;19.016;2024-02-15T09:32:45;100710.06;;;7.26;85.34
64683;BME280;51107;47.652;19.016;2024-02-15T09:35:14;100711.87;;;7.12;84.49
64683;BME280;51107;47.652;19.016;2024-02-15T09:37:47;100709.81;;;6.92;83.99
64683;BME280;51107;47.652;19.016;2024-02-15T09:40:18;100704.50;;;7.06;85.12
64683;BME280;51107;47.652;19.016;2024-02-15T09:42:49;100711.63;;;7.28;84.73
64683;BME280;51107;47.652;19.016;2024-02-15T09:45:17;100699.06;;;7.35;84.50
64683;BME280;51107;47.652;19.016;2024-02-15T09:47:47;100707.25;;;7.42;84.76
64683;BME280;51107;47.652;19.016;2024-02-15T09:50:18;100711.06;;;7.49;82.64
64683;BME280;51107;47.652;19.016;2024-02-15T09:52:50;100715.94;;;7.54;81.88
64683;BME280;51107;47.652;19.016;2024-02-15T09:55:20;100713.78;;;7.47;81.83
64683;BME280;51107;47.652;19.016;2024-02-15T09:57:51;100709.62;;;7.45;81.80
64683;BME280;51107;47.652;19.016;2024-02-15T10:00:19;100705.25;;;7.58;82.13
64683;BME280;51107;47.652;19.016;2024-02-15T10:02:53;100707.50;;;7.63;82.86
64683;BME280;51107;47.652;19.016;2024-02-15T10:05:22;100704.84;;;7.52;80.93
64683;BME280;51107;47.652;19.016;2024-02-15T10:07:51;100708.25;;;7.65;81.36
64683;BME280;51107;47.652;19.016;2024-02-15T10:10:24;100701.56;;;7.74;81.14
64683;BME280;51107;47.652;19.016;2024-02-15T10:12:54;100699.84;;;7.61;80.23
64683;BME280;51107;47.652;19.016;2024-02-15T10:15:37;100697.00;;;7.77;81.47
64683;BME280;51107;47.652;19.016;2024-02-15T10:18:08;100700.09;;;7.82;80.58
64683;BME280;51107;47.652;19.016;2024-02-15T10:20:39;100693.47;;;7.78;79.35
64683;BME280;51107;47.652;19.016;2024-02-15T10:23:10;100698.13;;;7.97;81.21
64683;BME280;51107;47.652;19.016;2024-02-15T10:25:39;100699.75;;;8.11;78.67
64683;BME280;51107;47.652;19.016;2024-02-15T10:28:10;100701.19;;;8.15;78.65
64683;BME280;51107;47.652;19.016;2024-02-15T10:30:43;100689.91;;;8.28;78.50
64683;BME280;51107;47.652;19.016;2024-02-15T10:33:26;100707.87;;;8.42;78.75
64683;BME280;51107;47.652;19.016;2024-02-15T10:36:10;100702.63;;;8.55;79.57
64683;BME280;51107;47.652;19.016;2024-02-15T10:38:42;100700.66;;;8.70;77.19
64683;BME280;51107;47.652;19.016;2024-02-15T10:41:10;100691.31;;;8.67;76.98
64683;BME280;51107;47.652;19.016;2024-02-15T10:43:41;100689.94;;;8.75;76.07
64683;BME280;51107;47.652;19.016;2024-02-15T10:46:14;100686.97;;;8.79;76.92
64683;BME280;51107;47.652;19.016;2024-02-15T10:48:47;100687.22;;;8.88;76.25
64683;BME280;51107;47.652;19.016;2024-02-15T10:51:16;100686.03;;;8.92;74.17
64683;BME280;51107;47.652;19.016;2024-02-15T10:53:48;100691.25;;;9.03;73.41
64683;BME280;51107;47.652;19.016;2024-02-15T10:56:27;100680.97;;;8.90;73.38
64683;BME280;51107;47.652;19.016;2024-02-15T10:59:19;100674.59;;;9.06;73.70
64683;BME280;51107;47.652;19.016;2024-02-15T11:01:54;100687.22;;;9.10;72.08
64683;BME280;51107;47.652;19.016;2024-02-15T11:04:27;100688.66;;;8.92;73.41
64683;BME280;51107;47.652;19.016;2024-02-15T11:07:01;100688.63;;;9.03;71.19
64683;BME280;51107;47.652;19.016;2024-02-15T11:09:30;100682.97;;;9.09;72.23
64683;BME280;51107;47.652;19.016;2024-02-15T11:11:58;100684.97;;;9.06;70.35
64683;BME280;51107;47.652;19.016;2024-02-15T11:14:30;100681.78;;;9.25;70.52
64683;BME280;51107;47.652;19.016;2024-02-15T11:17:00;100679.53;;;9.09;69.80
64683;BME280;51107;47.652;19.016;2024-02-15T11:22:00;100682.62;;;9.14;69.62
64683;BME280;51107;47.652;19.016;2024-02-15T11:24:31;100674.69;;;9.27;69.49
64683;BME280;51107;47.652;19.016;2024-02-15T11:27:09;100665.69;;;9.31;70.86
64683;BME280;51107;47.652;19.016;2024-02-15T11:35:10;100667.69;;;9.39;67.94
64683;BME280;51107;47.652;19.016;2024-02-15T11:46:19;100659.91;;;9.39;67.99
64683;BME280;51107;47.652;19.016;2024-02-15T11:48:48;100657.44;;;9.37;68.16
64683;BME280;51107;47.652;19.016;2024-02-15T11:51:30;100652.09;;;9.39;68.73
64683;BME280;51107;47.652;19.016;2024-02-15T11:54:06;100657.31;;;9.39;68.02
64683;BME280;51107;47.652;19.016;2024-02-15T11:59:17;100653.78;;;9.06;70.26
64683;BME280;51107;47.652;19.016;2024-02-15T12:02:00;100652.16;;;9.16;68.60
64683;BME280;51107;47.652;19.016;2024-02-15T12:04:46;100657.44;;;9.26;68.88
64683;BME280;51107;47.652;19.016;2024-02-15T12:07:33;100649.41;;;9.29;68.77
64683;BME280;51107;47.652;19.016;2024-02-15T12:10:20;100659.69;;;9.30;69.21
64683;BME280;51107;47.652;19.016;2024-02-15T12:13:07;100649.28;;;9.30;68.38
64683;BME280;51107;47.652;19.016;2024-02-15T12:16:01;100641.25;;;9.22;69.11
64683;BME280;51107;47.652;19.016;2024-02-15T12:18:48;100648.44;;;9.18;68.81
64683;BME280;51107;47.652;19.016;2024-02-15T12:21:26;100641.63;;;9.17;68.86
64683;BME280;51107;47.652;19.016;2024-02-15T12:23:55;100638.03;;;9.41;68.44
64683;BME280;51107;47.652;19.016;2024-02-15T12:26:24;100638.50;;;9.46;67.79
64683;BME280;51107;47.652;19.016;2024-02-15T12:28:54;100625.59;;;9.56;67.84
64683;BME280;51107;47.652;19.016;2024-02-15T12:31:24;100633.44;;;9.77;68.13
64683;BME280;51107;47.652;19.016;2024-02-15T12:34:00;100626.34;;;9.79;68.49
64683;BME280;51107;47.652;19.016;2024-02-15T12:36:30;100628.94;;;9.79;67.23
64683;BME280;51107;47.652;19.016;2024-02-15T12:39:02;100632.44;;;9.90;67.49
64683;BME280;51107;47.652;19.016;2024-02-15T12:41:31;100629.16;;;9.76;66.35
64683;BME280;51107;47.652;19.016;2024-02-15T12:44:00;100624.72;;;9.67;66.68
64683;BME280;51107;47.652;19.016;2024-02-15T12:46:29;100627.97;;;9.80;66.60
64683;BME280;51107;47.652;19.016;2024-02-15T12:49:29;100614.16;;;9.80;67.18
64683;BME280;51107;47.652;19.016;2024-02-15T12:52:34;100609.91;;;10.00;66.63
64683;BME280;51107;47.652;19.016;2024-02-15T12:55:10;100607.94;;;9.92;67.54
64683;BME280;51107;47.652;19.016;2024-02-15T12:57:39;100617.75;;;9.89;67.86
64683;BME280;51107;47.652;19.016;2024-02-15T13:00:13;100607.59;;;9.85;67.88
64683;BME280;51107;47.652;19.016;2024-02-15T13:02:46;100610.63;;;9.69;65.66
64683;BME280;51107;47.652;19.016;2024-02-15T13:05:18;100603.41;;;9.73;67.90
64683;BME280;51107;47.652;19.016;2024-02-15T13:07:50;100610.22;;;9.85;66.98
64683;BME280;51107;47.652;19.016;2024-02-15T13:10:18;100611.16;;;9.84;67.54
64683;BME280;51107;47.652;19.016;2024-02-15T13:12:48;100611.59;;;9.57;65.88
64683;BME280;51107;47.652;19.016;2024-02-15T13:15:16;100599.94;;;9.51;66.90
64683;BME280;51107;47.652;19.016;2024-02-15T13:17:50;100598.09;;;9.42;66.70
64683;BME280;51107;47.652;19.016;2024-02-15T13:20:23;100603.31;;;9.63;68.36
64683;BME280;51107;47.652;19.016;2024-02-15T13:23:05;100602.47;;;9.74;68.51
64683;BME280;51107;47.652;19.016;2024-02-15T13:25:38;100603.31;;;9.63;67.64
64683;BME280;51107;47.652;19.016;2024-02-15T13:28:09;100596.84;;;9.58;66.03